Time;durP1;ratioP1;P1;durP2;ratioP2;P2;SDS_P1;SDS_P2;PMS_P1;PMS_P2;Temp;Humidity;BMP_temperature;BMP_pressure;BME280_temperature;BME280_humidity;BME280_pressure;Samples;Min_cycle;Max_cycle;Signal;HPM_P1;HPM_P2
2021/06/13 00:01:28;;;;;;;;;;;11.50;82.90;;;;;;5022484;28;19939;-70
2021/06/13 00:03:54;;;;;;;;;;;11.40;83.40;;;;;;5021269;28;19917;-71
2021/06/13 00:06:19;;;;;;;;;;;11.40;83.60;;;;;;5023407;28;20059;-70
2021/06/13 00:08:45;;;;;;;;;;;11.30;83.90;;;;;;5021470;28;20045;-72
2021/06/13 00:11:10;;;;;;;;;;;11.30;84.40;;;;;;5021083;28;20409;-70
2021/06/13 00:13:36;;;;;;;;;;;11.10;84.50;;;;;;5019955;28;20224;-69
2021/06/13 00:16:02;;;;;;;;;;;11.10;84.60;;;;;;5021852;28;20630;-69
2021/06/13 00:18:28;;;;;;;;;;;11.10;84.70;;;;;;5020730;28;19956;-72
2021/06/13 00:20:53;;;;;;;;;;;11.00;85.20;;;;;;5020904;28;19961;-68
2021/06/13 00:23:19;;;;;;;;;;;10.90;85.60;;;;;;5020210;28;19920;-69
2021/06/13 00:25:46;;;;;;;;;;;10.90;85.80;;;;;;5017042;28;20309;-70
2021/06/13 00:28:11;;;;;;;;;;;10.80;85.80;;;;;;5020839;28;20016;-69
2021/06/13 00:30:37;;;;;;;;;;;10.70;86.10;;;;;;5021610;28;19917;-71
2021/06/13 00:33:03;;;;;;;;;;;10.70;86.20;;;;;;5020158;28;19920;-70
2021/06/13 00:35:29;;;;;;;;;;;10.80;85.90;;;;;;5021226;28;19917;-71
2021/06/13 00:37:54;;;;;;;;;;;10.70;86.50;;;;;;5021164;28;19924;-68
2021/06/13 00:40:21;;;;;;;;;;;10.70;86.60;;;;;;5022428;28;19986;-69
2021/06/13 00:42:47;;;;;;;;;;;10.70;86.40;;;;;;5020371;28;20055;-70
2021/06/13 00:45:13;;;;;;;;;;;10.70;86.30;;;;;;5022107;28;20254;-68
2021/06/13 00:47:39;;;;;;;;;;;10.60;86.40;;;;;;5022297;28;19917;-69
2021/06/13 00:50:05;;;;;;;;;;;10.60;86.50;;;;;;5021478;28;19997;-71
2021/06/13 00:52:31;;;;;;;;;;;10.60;86.60;;;;;;5020198;28;20147;-70
2021/06/13 00:54:56;;;;;;;;;;;10.50;86.90;;;;;;5019769;28;20386;-69
2021/06/13 00:57:22;;;;;;;;;;;10.60;86.70;;;;;;5019504;28;20032;-72
2021/06/13 00:59:47;;;;;;;;;;;10.60;86.80;;;;;;5021913;28;20094;-71
2021/06/13 01:02:13;;;;;;;;;;;10.60;86.60;;;;;;5020574;28;20299;-69
2021/06/13 01:04:38;;;;;;;;;;;10.70;86.40;;;;;;5020162;28;20144;-70
2021/06/13 01:07:15;;;;;;;;;;;10.80;86.20;;;;;;5021948;28;20135;-69
2021/06/13 01:10:01;;;;;;;;;;;10.90;86.00;;;;;;5008599;28;20293;-69
2021/06/13 01:12:56;;;;;;;;;;;11.00;86.00;;;;;;5013528;28;20490;-70
2021/06/13 01:15:26;;;;;;;;;;;11.10;85.50;;;;;;5009923;28;19924;-72
2021/06/13 01:18:02;;;;;;;;;;;11.10;85.40;;;;;;5023185;28;19916;-69
2021/06/13 01:20:37;;;;;;;;;;;11.10;85.20;;;;;;5023967;28;20357;-72
2021/06/13 01:23:03;;;;;;;;;;;11.10;85.20;;;;;;5020863;28;20020;-69
2021/06/13 01:25:55;;;;;;;;;;;11.20;85.00;;;;;;5014448;28;19914;-68
2021/06/13 01:28:28;;;;;;;;;;;11.20;85.10;;;;;;5017789;28;19913;-72
2021/06/13 01:30:55;;;;;;;;;;;11.20;85.10;;;;;;5016151;28;20352;-69
2021/06/13 01:33:22;;;;;;;;;;;11.30;85.00;;;;;;5017692;28;19917;-69
2021/06/13 01:35:48;;;;;;;;;;;11.30;85.00;;;;;;5011112;28;19921;-69
2021/06/13 01:38:15;;;;;;;;;;;11.30;85.00;;;;;;5018131;28;19920;-68
2021/06/13 01:40:41;;;;;;;;;;;11.30;84.90;;;;;;5007870;28;20019;-69
2021/06/13 01:43:07;;;;;;;;;;;11.20;85.20;;;;;;5019133;28;20024;-70
2021/06/13 01:45:40;;;;;;;;;;;11.30;85.30;;;;;;5022782;28;20004;-72
2021/06/13 01:48:06;;;;;;;;;;;11.10;85.50;;;;;;5029367;28;20046;-70
2021/06/13 01:50:32;;;;;;;;;;;11.10;85.90;;;;;;5041372;28;19997;-68
2021/06/13 01:53:00;;;;;;;;;;;11.10;85.80;;;;;;5021909;28;20052;-71
2021/06/13 01:55:25;;;;;;;;;;;11.10;86.00;;;;;;5019857;28;19982;-68
2021/06/13 01:57:52;;;;;;;;;;;11.00;86.40;;;;;;5019935;28;19917;-69
2021/06/13 02:00:18;;;;;;;;;;;11.00;86.60;;;;;;5022631;28;19959;-69
2021/06/13 02:02:44;;;;;;;;;;;10.90;87.10;;;;;;5021825;28;19918;-68
2021/06/13 02:05:11;;;;;;;;;;;10.90;87.10;;;;;;5019803;28;19913;-69
2021/06/13 02:07:37;;;;;;;;;;;10.90;86.90;;;;;;5023394;28;20075;-69
2021/06/13 02:10:08;;;;;;;;;;;10.80;86.90;;;;;;5018688;28;20574;-72
2021/06/13 02:12:42;;;;;;;;;;;10.70;87.30;;;;;;5024565;28;19954;-69
2021/06/13 02:15:08;;;;;;;;;;;10.60;87.70;;;;;;5017259;28;19979;-73
2021/06/13 02:17:35;;;;;;;;;;;10.50;88.10;;;;;;5024429;28;20024;-70
2021/06/13 02:20:01;;;;;;;;;;;10.60;88.00;;;;;;5041606;28;20015;-68
2021/06/13 02:22:27;;;;;;;;;;;10.50;88.10;;;;;;5016774;28;19920;-70
2021/06/13 02:24:52;;;;;;;;;;;10.50;88.60;;;;;;5024240;28;19929;-69
2021/06/13 02:27:21;;;;;;;;;;;10.30;88.50;;;;;;5012901;28;19944;-72
2021/06/13 02:29:47;;;;;;;;;;;10.40;89.00;;;;;;5013700;28;19914;-70
2021/06/13 02:32:13;;;;;;;;;;;10.40;88.70;;;;;;5023999;28;19913;-71
2021/06/13 02:34:38;;;;;;;;;;;10.40;89.10;;;;;;5012575;28;19913;-70
2021/06/13 02:37:06;;;;;;;;;;;10.30;89.10;;;;;;5026504;28;19923;-69
2021/06/13 02:39:32;;;;;;;;;;;10.30;89.20;;;;;;5024324;28;20448;-69
2021/06/13 02:41:58;;;;;;;;;;;10.30;89.30;;;;;;5025508;28;19995;-69
2021/06/13 02:44:23;;;;;;;;;;;10.40;89.20;;;;;;5016321;28;19921;-71
2021/06/13 02:46:49;;;;;;;;;;;10.40;89.00;;;;;;5024696;28;20316;-71
2021/06/13 02:49:14;;;;;;;;;;;10.50;89.10;;;;;;5026162;28;20414;-68
2021/06/13 02:51:47;;;;;;;;;;;10.50;88.90;;;;;;5017781;28;19924;-69
2021/06/13 02:54:13;;;;;;;;;;;10.50;89.10;;;;;;5019327;28;20162;-69
2021/06/13 02:56:53;;;;;;;;;;;10.40;89.20;;;;;;5013522;28;20124;-69
2021/06/13 02:59:36;;;;;;;;;;;10.30;89.60;;;;;;5019848;28;20272;-71
2021/06/13 03:02:05;;;;;;;;;;;10.20;90.00;;;;;;5026257;28;19913;-72
2021/06/13 03:04:30;;;;;;;;;;;10.30;89.80;;;;;;5010032;28;20008;-71
2021/06/13 03:06:56;;;;;;;;;;;10.40;90.10;;;;;;5021273;28;20021;-68
2021/06/13 03:09:23;;;;;;;;;;;10.40;89.80;;;;;;5017789;28;20152;-69
2021/06/13 03:11:49;;;;;;;;;;;10.50;89.80;;;;;;5013723;28;20286;-71
2021/06/13 03:14:15;;;;;;;;;;;10.50;89.50;;;;;;5023703;28;19975;-71
2021/06/13 03:16:40;;;;;;;;;;;10.50;89.50;;;;;;5022551;28;20175;-69
2021/06/13 03:19:07;;;;;;;;;;;10.60;89.30;;;;;;5017540;28;19987;-69
2021/06/13 03:21:32;;;;;;;;;;;10.60;89.30;;;;;;5010289;28;20380;-69
2021/06/13 03:23:59;;;;;;;;;;;10.80;88.90;;;;;;5018363;28;19928;-70
2021/06/13 03:26:25;;;;;;;;;;;10.80;88.70;;;;;;5021933;28;20060;-70
2021/06/13 03:28:54;;;;;;;;;;;10.90;88.60;;;;;;5014421;28;20385;-69
2021/06/13 03:31:20;;;;;;;;;;;11.00;88.20;;;;;;5024246;28;20417;-69
2021/06/13 03:33:47;;;;;;;;;;;11.00;88.10;;;;;;5033850;28;20359;-71
2021/06/13 03:36:13;;;;;;;;;;;11.00;88.30;;;;;;5016566;28;19929;-70
2021/06/13 03:38:40;;;;;;;;;;;11.00;88.20;;;;;;5012607;28;20330;-70
2021/06/13 03:41:06;;;;;;;;;;;11.00;88.00;;;;;;5010312;28;19917;-70
2021/06/13 03:43:31;;;;;;;;;;;11.00;87.90;;;;;;5022038;28;19947;-70
2021/06/13 03:45:57;;;;;;;;;;;11.00;87.90;;;;;;5023736;28;19962;-73
2021/06/13 03:48:23;;;;;;;;;;;11.10;87.80;;;;;;5022515;28;20414;-67
2021/06/13 03:50:49;;;;;;;;;;;11.20;87.40;;;;;;5018512;28;19921;-71
2021/06/13 03:53:15;;;;;;;;;;;11.20;87.20;;;;;;5023040;28;19960;-71
2021/06/13 03:55:41;;;;;;;;;;;11.30;86.60;;;;;;5013867;28;20030;-69
2021/06/13 03:58:08;;;;;;;;;;;11.30;86.60;;;;;;5019721;28;19914;-68
2021/06/13 04:00:33;;;;;;;;;;;11.20;86.70;;;;;;5022974;28;19917;-69
2021/06/13 04:02:59;;;;;;;;;;;11.30;86.90;;;;;;5016569;28;19936;-69
2021/06/13 04:05:25;;;;;;;;;;;11.20;86.50;;;;;;5022895;28;19913;-67
2021/06/13 04:07:51;;;;;;;;;;;11.10;86.90;;;;;;5021381;28;19928;-70
2021/06/13 04:10:18;;;;;;;;;;;11.00;86.90;;;;;;5024989;28;19928;-68
2021/06/13 04:12:51;;;;;;;;;;;11.00;87.30;;;;;;5021303;28;20062;-69
2021/06/13 04:15:17;;;;;;;;;;;11.00;87.30;;;;;;5023161;28;20033;-67
2021/06/13 04:17:43;;;;;;;;;;;11.00;87.50;;;;;;5017648;28;19924;-67
2021/06/13 04:20:11;;;;;;;;;;;11.20;87.20;;;;;;5022607;28;19924;-70
2021/06/13 04:22:38;;;;;;;;;;;11.30;87.00;;;;;;5020225;28;19922;-67
2021/06/13 04:25:04;;;;;;;;;;;11.30;86.90;;;;;;5018548;28;20261;-68
2021/06/13 04:27:30;;;;;;;;;;;11.40;86.90;;;;;;5015181;28;20372;-68
2021/06/13 04:29:59;;;;;;;;;;;11.40;86.60;;;;;;5029199;28;20404;-69
2021/06/13 04:32:25;;;;;;;;;;;11.50;86.70;;;;;;5021696;28;20021;-68
2021/06/13 04:34:50;;;;;;;;;;;11.40;87.00;;;;;;5014749;28;20082;-69
2021/06/13 04:37:17;;;;;;;;;;;11.50;86.80;;;;;;5019568;28;19917;-69
2021/06/13 04:39:42;;;;;;;;;;;11.50;86.90;;;;;;5022304;28;19928;-69
2021/06/13 04:42:08;;;;;;;;;;;11.50;86.70;;;;;;5020364;28;19925;-67
2021/06/13 04:44:34;;;;;;;;;;;11.60;86.70;;;;;;5018883;28;19953;-67
2021/06/13 04:47:01;;;;;;;;;;;11.70;86.60;;;;;;5013200;28;21755;-67
2021/06/13 04:49:26;;;;;;;;;;;11.60;86.50;;;;;;5008158;28;20320;-67
2021/06/13 04:51:54;;;;;;;;;;;11.60;86.70;;;;;;5016631;28;19916;-67
2021/06/13 04:54:27;;;;;;;;;;;11.60;86.80;;;;;;5020768;28;20437;-67
2021/06/13 04:56:59;;;;;;;;;;;11.60;86.80;;;;;;5019715;28;19943;-67
2021/06/13 04:59:24;;;;;;;;;;;11.70;86.40;;;;;;5021858;28;19917;-69
2021/06/13 05:01:50;;;;;;;;;;;11.80;85.90;;;;;;5021857;28;20003;-67
2021/06/13 05:04:15;;;;;;;;;;;11.80;85.60;;;;;;5018591;28;20217;-67
2021/06/13 05:06:42;;;;;;;;;;;11.90;85.70;;;;;;5020196;28;20370;-68
2021/06/13 05:09:08;;;;;;;;;;;12.00;85.60;;;;;;5004950;28;20004;-68
2021/06/13 05:11:34;;;;;;;;;;;12.00;84.30;;;;;;5015368;28;20020;-67
2021/06/13 05:13:59;;;;;;;;;;;12.10;84.10;;;;;;5019745;28;19999;-68
2021/06/13 05:16:25;;;;;;;;;;;12.20;84.20;;;;;;5021440;28;19975;-67
2021/06/13 05:18:50;;;;;;;;;;;12.10;83.40;;;;;;5019937;28;19913;-67
2021/06/13 05:21:15;;;;;;;;;;;12.20;83.10;;;;;;5019437;28;20396;-68
2021/06/13 05:23:41;;;;;;;;;;;12.20;83.40;;;;;;5020285;28;19979;-68
2021/06/13 05:26:07;;;;;;;;;;;12.30;82.90;;;;;;5022069;28;20392;-68
2021/06/13 05:28:32;;;;;;;;;;;12.30;82.70;;;;;;5016325;28;19939;-68
2021/06/13 05:30:59;;;;;;;;;;;12.30;82.80;;;;;;5019015;28;19991;-67
2021/06/13 05:33:24;;;;;;;;;;;12.30;83.10;;;;;;5015715;28;19961;-68
2021/06/13 05:35:51;;;;;;;;;;;12.30;82.90;;;;;;5021756;28;19976;-68
2021/06/13 05:38:17;;;;;;;;;;;12.20;83.50;;;;;;5020535;28;19913;-68
2021/06/13 05:40:42;;;;;;;;;;;12.40;84.20;;;;;;5022476;28;20016;-67
2021/06/13 05:43:08;;;;;;;;;;;12.40;84.00;;;;;;5016499;28;20017;-68
2021/06/13 05:45:35;;;;;;;;;;;12.50;83.90;;;;;;5017623;28;19917;-68
2021/06/13 05:48:00;;;;;;;;;;;12.50;83.40;;;;;;5012710;28;19976;-67
2021/06/13 05:50:26;;;;;;;;;;;12.60;82.80;;;;;;5012529;28;19921;-68
2021/06/13 05:52:52;;;;;;;;;;;12.90;82.40;;;;;;5015701;28;20372;-68
2021/06/13 05:55:18;;;;;;;;;;;13.00;81.70;;;;;;5010771;28;20031;-68
2021/06/13 05:57:44;;;;;;;;;;;13.10;81.60;;;;;;5011847;28;20436;-68
2021/06/13 06:00:13;;;;;;;;;;;13.00;81.10;;;;;;5020739;28;20002;-67
2021/06/13 06:02:39;;;;;;;;;;;13.10;80.50;;;;;;5021290;28;19992;-67
2021/06/13 06:05:05;;;;;;;;;;;13.30;80.00;;;;;;5016932;28;20099;-68
2021/06/13 06:07:31;;;;;;;;;;;13.30;79.70;;;;;;5015569;28;20059;-68
2021/06/13 06:09:57;;;;;;;;;;;13.50;79.30;;;;;;4999555;28;19957;-68
2021/06/13 06:12:22;;;;;;;;;;;13.40;79.20;;;;;;5015384;28;20392;-67
2021/06/13 06:14:48;;;;;;;;;;;13.50;78.90;;;;;;5010629;28;20388;-68
2021/06/13 06:17:13;;;;;;;;;;;13.60;77.80;;;;;;5009553;28;19961;-67
2021/06/13 06:19:39;;;;;;;;;;;13.60;78.10;;;;;;5016792;28;19929;-68
2021/06/13 06:22:05;;;;;;;;;;;13.60;77.70;;;;;;5015671;28;19941;-68
2021/06/13 06:24:30;;;;;;;;;;;13.70;77.80;;;;;;5020704;28;20011;-68
2021/06/13 06:26:56;;;;;;;;;;;13.60;77.20;;;;;;5014182;28;19989;-68
2021/06/13 06:29:22;;;;;;;;;;;13.70;77.70;;;;;;5014780;28;20187;-68
2021/06/13 06:31:47;;;;;;;;;;;13.90;77.30;;;;;;5017039;28;19913;-68
2021/06/13 06:34:13;;;;;;;;;;;14.10;76.30;;;;;;5019315;28;19962;-68
2021/06/13 06:36:39;;;;;;;;;;;14.00;76.60;;;;;;5023426;28;19992;-68
2021/06/13 06:39:04;;;;;;;;;;;14.20;77.00;;;;;;5024014;28;19924;-68
2021/06/13 06:41:30;;;;;;;;;;;14.60;76.20;;;;;;5023926;28;19920;-69
2021/06/13 06:43:55;;;;;;;;;;;14.50;76.00;;;;;;5015399;28;20439;-69
2021/06/13 06:46:21;;;;;;;;;;;14.50;76.10;;;;;;5022794;28;20510;-67
2021/06/13 06:48:46;;;;;;;;;;;14.30;75.50;;;;;;5018697;28;19914;-68
2021/06/13 06:51:12;;;;;;;;;;;14.40;75.70;;;;;;5010719;28;20436;-69
2021/06/13 06:53:40;;;;;;;;;;;14.30;75.40;;;;;;5013845;28;20408;-68
2021/06/13 06:56:06;;;;;;;;;;;14.40;75.00;;;;;;5022779;28;19981;-67
2021/06/13 06:58:31;;;;;;;;;;;14.60;74.80;;;;;;5023105;28;19921;-68
2021/06/13 07:00:57;;;;;;;;;;;14.50;74.80;;;;;;5025214;28;19913;-68
2021/06/13 07:03:22;;;;;;;;;;;14.50;75.40;;;;;;5016472;28;19996;-68
2021/06/13 07:05:48;;;;;;;;;;;14.60;75.00;;;;;;5020719;28;19913;-68
2021/06/13 07:08:13;;;;;;;;;;;14.80;74.80;;;;;;5014665;28;19955;-68
2021/06/13 07:10:38;;;;;;;;;;;14.90;73.30;;;;;;5023170;28;20027;-68
2021/06/13 07:13:05;;;;;;;;;;;15.00;72.60;;;;;;5015321;28;19924;-68
2021/06/13 07:15:30;;;;;;;;;;;15.10;71.90;;;;;;5020139;28;19912;-71
2021/06/13 07:17:56;;;;;;;;;;;15.40;71.50;;;;;;5022883;28;19913;-71
2021/06/13 07:20:21;;;;;;;;;;;15.40;70.30;;;;;;5021840;28;20008;-69
2021/06/13 07:22:47;;;;;;;;;;;15.40;70.00;;;;;;5019403;28;19917;-69
2021/06/13 07:25:12;;;;;;;;;;;15.30;69.60;;;;;;5016678;28;19945;-72
2021/06/13 07:27:39;;;;;;;;;;;15.30;69.90;;;;;;5022882;28;19913;-69
2021/06/13 07:30:05;;;;;;;;;;;15.30;70.90;;;;;;5019055;28;19929;-70
2021/06/13 07:32:31;;;;;;;;;;;15.50;70.10;;;;;;5022041;28;19921;-74
2021/06/13 07:34:56;;;;;;;;;;;15.70;67.60;;;;;;5018235;28;19960;-69
2021/06/13 07:37:22;;;;;;;;;;;16.40;67.50;;;;;;5022337;28;20019;-69
2021/06/13 07:39:47;;;;;;;;;;;16.60;65.00;;;;;;5013617;28;20294;-69
2021/06/13 07:42:13;;;;;;;;;;;16.50;64.70;;;;;;5024709;28;19976;-69
2021/06/13 07:44:39;;;;;;;;;;;16.40;65.60;;;;;;5019108;28;19913;-69
2021/06/13 07:47:05;;;;;;;;;;;16.80;63.80;;;;;;5021156;28;20023;-70
2021/06/13 07:49:30;;;;;;;;;;;17.00;63.30;;;;;;5017751;28;20297;-70
2021/06/13 07:51:58;;;;;;;;;;;16.40;63.10;;;;;;5020658;28;19936;-69
2021/06/13 07:54:23;;;;;;;;;;;16.50;63.70;;;;;;5022329;28;19923;-69
2021/06/13 07:56:49;;;;;;;;;;;16.40;63.80;;;;;;5024049;28;20019;-70
2021/06/13 07:59:14;;;;;;;;;;;16.40;62.70;;;;;;5022236;28;19925;-68
2021/06/13 08:01:40;;;;;;;;;;;16.10;62.50;;;;;;5023215;28;19928;-68
2021/06/13 08:04:05;;;;;;;;;;;16.00;62.80;;;;;;5017194;28;20334;-67
2021/06/13 08:06:32;;;;;;;;;;;16.00;61.50;;;;;;5014998;28;19971;-68
2021/06/13 08:08:58;;;;;;;;;;;16.10;62.60;;;;;;5017131;28;19928;-68
2021/06/13 08:11:24;;;;;;;;;;;16.20;61.70;;;;;;5015761;28;19921;-69
2021/06/13 08:13:49;;;;;;;;;;;16.50;61.40;;;;;;5011368;28;19920;-69
2021/06/13 08:16:15;;;;;;;;;;;16.40;61.20;;;;;;5022628;28;20014;-69
2021/06/13 08:18:40;;;;;;;;;;;16.80;61.20;;;;;;5012625;28;19928;-68
2021/06/13 08:21:06;;;;;;;;;;;17.00;60.00;;;;;;5015210;28;20309;-70
2021/06/13 08:23:32;;;;;;;;;;;17.50;59.30;;;;;;5016755;28;20432;-70
2021/06/13 08:25:58;;;;;;;;;;;17.10;58.10;;;;;;5018229;28;20398;-67
2021/06/13 08:28:24;;;;;;;;;;;17.40;58.10;;;;;;5018672;28;19937;-72
2021/06/13 08:30:49;;;;;;;;;;;17.20;58.50;;;;;;5022884;28;19936;-68
2021/06/13 08:33:15;;;;;;;;;;;17.40;59.80;;;;;;5013101;28;19922;-69
2021/06/13 08:35:40;;;;;;;;;;;17.00;59.50;;;;;;5021873;28;19921;-68
2021/06/13 08:38:06;;;;;;;;;;;16.70;59.10;;;;;;5019261;28;19953;-70
2021/06/13 08:40:31;;;;;;;;;;;16.60;59.60;;;;;;5021612;28;19921;-71
2021/06/13 08:42:57;;;;;;;;;;;16.50;59.20;;;;;;5016933;28;19987;-70
2021/06/13 08:45:23;;;;;;;;;;;17.50;59.60;;;;;;5018321;28;19951;-69
2021/06/13 08:47:51;;;;;;;;;;;17.90;56.60;;;;;;5018661;28;20361;-69
2021/06/13 08:50:17;;;;;;;;;;;17.90;55.60;;;;;;5025493;28;19913;-68
2021/06/13 08:52:42;;;;;;;;;;;17.10;58.30;;;;;;5013336;28;19979;-68
2021/06/13 08:55:08;;;;;;;;;;;16.90;58.50;;;;;;5021133;28;19975;-68
2021/06/13 08:57:34;;;;;;;;;;;17.30;57.00;;;;;;5013926;28;19932;-68
2021/06/13 09:00:00;;;;;;;;;;;17.50;57.70;;;;;;5016275;28;20007;-68
2021/06/13 09:02:25;;;;;;;;;;;17.80;55.10;;;;;;5016032;28;19917;-70
2021/06/13 09:04:51;;;;;;;;;;;18.00;54.80;;;;;;5020046;28;19913;-69
2021/06/13 09:07:24;;;;;;;;;;;18.30;53.90;;;;;;5021717;28;20310;-70
2021/06/13 09:09:50;;;;;;;;;;;18.30;54.00;;;;;;5034628;28;19924;-68
2021/06/13 09:12:16;;;;;;;;;;;18.10;53.90;;;;;;5017752;28;19936;-72
2021/06/13 09:14:42;;;;;;;;;;;18.60;52.10;;;;;;5019136;28;20380;-68
2021/06/13 09:17:18;;;;;;;;;;;18.60;51.90;;;;;;5020944;28;19928;-69
2021/06/13 09:20:02;;;;;;;;;;;18.70;52.30;;;;;;5020131;28;20524;-67
2021/06/13 09:22:28;;;;;;;;;;;18.20;53.40;;;;;;5027566;28;19924;-68
2021/06/13 09:25:23;;;;;;;;;;;18.70;52.30;;;;;;5016002;28;20298;-68
2021/06/13 09:28:03;;;;;;;;;;;19.10;53.90;;;;;;5011232;28;19958;-72
2021/06/13 09:30:32;;;;;;;;;;;18.80;54.00;;;;;;5018504;28;20000;-71
2021/06/13 09:33:02;;;;;;;;;;;18.30;55.20;;;;;;5017135;28;20000;-69
2021/06/13 09:35:29;;;;;;;;;;;18.80;54.60;;;;;;5020321;28;19917;-67
2021/06/13 09:38:15;;;;;;;;;;;19.40;51.80;;;;;;5016005;28;20072;-68
2021/06/13 09:40:48;;;;;;;;;;;18.70;52.90;;;;;;5015928;28;20080;-69
2021/06/13 09:43:16;;;;;;;;;;;18.10;54.80;;;;;;5010349;28;19921;-70
2021/06/13 09:45:48;;;;;;;;;;;17.60;57.10;;;;;;5018656;28;19921;-67
2021/06/13 09:48:14;;;;;;;;;;;18.40;55.20;;;;;;5019355;28;19985;-70
2021/06/13 09:50:41;;;;;;;;;;;19.00;50.50;;;;;;5016853;28;19958;-71
2021/06/13 09:53:45;;;;;;;;;;;19.40;52.00;;;;;;5019139;28;19990;-69
2021/06/13 09:56:12;;;;;;;;;;;19.10;50.30;;;;;;5008934;28;19921;-68
2021/06/13 09:58:49;;;;;;;;;;;18.80;52.80;;;;;;5014358;28;20175;-67
2021/06/13 10:01:15;;;;;;;;;;;18.20;53.30;;;;;;5012545;28;19943;-69
2021/06/13 10:03:41;;;;;;;;;;;18.00;53.60;;;;;;5014116;28;19970;-70
2021/06/13 10:06:08;;;;;;;;;;;17.90;54.30;;;;;;5024617;28;20247;-67
2021/06/13 10:08:34;;;;;;;;;;;18.10;53.90;;;;;;5023303;28;20518;-69
2021/06/13 10:11:00;;;;;;;;;;;18.40;53.50;;;;;;5019440;28;20015;-68
2021/06/13 10:13:45;;;;;;;;;;;18.30;52.40;;;;;;5024700;28;19913;-68
2021/06/13 10:16:21;;;;;;;;;;;18.50;52.00;;;;;;5031313;28;19921;-70
2021/06/13 10:18:50;;;;;;;;;;;18.70;50.60;;;;;;5020165;28;19922;-72
2021/06/13 10:21:15;;;;;;;;;;;18.80;49.50;;;;;;5024356;28;19917;-70
2021/06/13 10:23:41;;;;;;;;;;;18.50;50.20;;;;;;5017649;28;19945;-69
2021/06/13 10:26:07;;;;;;;;;;;19.20;48.40;;;;;;5020439;28;20402;-70
2021/06/13 10:28:33;;;;;;;;;;;20.20;48.40;;;;;;5016446;28;19979;-70
2021/06/13 10:30:58;;;;;;;;;;;20.40;47.00;;;;;;5024384;28;19931;-72
2021/06/13 10:33:25;;;;;;;;;;;20.00;47.50;;;;;;5024484;28;19913;-73
2021/06/13 10:35:50;;;;;;;;;;;19.40;47.90;;;;;;5021573;28;19933;-69
2021/06/13 10:38:16;;;;;;;;;;;19.30;48.60;;;;;;5012198;28;19935;-70
2021/06/13 10:40:41;;;;;;;;;;;19.60;50.10;;;;;;5023027;28;20349;-69
2021/06/13 10:43:07;;;;;;;;;;;20.00;48.00;;;;;;5014105;28;20346;-69
2021/06/13 10:45:32;;;;;;;;;;;19.70;48.60;;;;;;5023799;28;19932;-68
2021/06/13 10:48:04;;;;;;;;;;;20.00;47.30;;;;;;5014280;28;20012;-70
2021/06/13 10:50:34;;;;;;;;;;;19.90;47.80;;;;;;5008137;28;20025;-71
2021/06/13 10:53:01;;;;;;;;;;;20.50;46.50;;;;;;5020727;28;19927;-71
2021/06/13 10:55:53;;;;;;;;;;;20.50;47.10;;;;;;5023966;28;20007;-71
2021/06/13 10:58:37;;;;;;;;;;;20.20;46.60;;;;;;5015000;28;20042;-72
2021/06/13 11:01:21;;;;;;;;;;;20.50;47.40;;;;;;5023797;28;19948;-72
2021/06/13 11:04:13;;;;;;;;;;;19.90;46.00;;;;;;5016665;28;19914;-70
2021/06/13 11:06:39;;;;;;;;;;;20.00;47.50;;;;;;5018028;28;20016;-71
2021/06/13 11:09:06;;;;;;;;;;;21.00;45.80;;;;;;5021922;28;19913;-71
2021/06/13 11:11:33;;;;;;;;;;;20.30;45.50;;;;;;5023384;28;19940;-71
2021/06/13 11:14:17;;;;;;;;;;;20.00;45.10;;;;;;5023078;28;20008;-69
2021/06/13 11:16:42;;;;;;;;;;;19.50;47.50;;;;;;5015719;28;20389;-70
2021/06/13 11:19:23;;;;;;;;;;;20.50;46.00;;;;;;5015325;28;19913;-73
2021/06/13 11:21:48;;;;;;;;;;;21.00;44.00;;;;;;5020636;28;20386;-70
2021/06/13 11:24:34;;;;;;;;;;;21.00;46.60;;;;;;5017942;28;19978;-72
2021/06/13 11:27:03;;;;;;;;;;;21.10;44.50;;;;;;5014983;28;20151;-71
2021/06/13 11:29:48;;;;;;;;;;;21.80;43.50;;;;;;5038964;28;19929;-72
2021/06/13 11:32:13;;;;;;;;;;;21.30;43.50;;;;;;5019295;28;19985;-72
2021/06/13 11:34:46;;;;;;;;;;;21.20;43.10;;;;;;5010356;28;20397;-71
2021/06/13 11:37:21;;;;;;;;;;;21.10;44.40;;;;;;5018367;28;19921;-68
2021/06/13 11:39:54;;;;;;;;;;;21.30;44.40;;;;;;5017452;28;19918;-71
2021/06/13 11:42:20;;;;;;;;;;;21.60;43.90;;;;;;5013252;28;19913;-69
2021/06/13 11:44:47;;;;;;;;;;;21.40;43.30;;;;;;5014686;28;19920;-69
2021/06/13 11:47:24;;;;;;;;;;;21.90;44.30;;;;;;5020038;28;20265;-68
2021/06/13 11:49:52;;;;;;;;;;;22.00;44.30;;;;;;5020528;28;20265;-70
2021/06/13 11:52:19;;;;;;;;;;;21.90;43.10;;;;;;5020035;28;19963;-68
2021/06/13 11:54:47;;;;;;;;;;;21.30;45.50;;;;;;5019302;28;20076;-69
2021/06/13 11:57:13;;;;;;;;;;;21.80;44.00;;;;;;5012710;28;19924;-67
2021/06/13 11:59:39;;;;;;;;;;;21.30;42.90;;;;;;5022796;28;19909;-68
2021/06/13 12:02:05;;;;;;;;;;;21.60;43.30;;;;;;5003458;28;19920;-70
2021/06/13 12:04:31;;;;;;;;;;;22.00;42.70;;;;;;5020736;28;20337;-70
2021/06/13 12:06:57;;;;;;;;;;;22.50;42.70;;;;;;5021401;28;19921;-68
2021/06/13 12:09:23;;;;;;;;;;;22.70;39.50;;;;;;5022698;28;19913;-67
2021/06/13 12:11:53;;;;;;;;;;;23.00;39.90;;;;;;5019927;28;19920;-68
2021/06/13 12:14:51;;;;;;;;;;;22.20;40.30;;;;;;5020906;28;20365;-68
2021/06/13 12:17:18;;;;;;;;;;;22.70;40.30;;;;;;5009357;28;19928;-68
2021/06/13 12:19:46;;;;;;;;;;;21.80;42.30;;;;;;5019326;28;19917;-68
2021/06/13 12:22:15;;;;;;;;;;;23.30;41.10;;;;;;5020245;28;20281;-71
2021/06/13 12:27:22;;;;;;;;;;;23.00;40.90;;;;;;5021005;28;19933;-68
2021/06/13 12:29:51;;;;;;;;;;;22.70;41.50;;;;;;5022481;28;19917;-68
2021/06/13 12:32:17;;;;;;;;;;;23.00;41.20;;;;;;5021563;28;19917;-70
2021/06/13 12:34:46;;;;;;;;;;;23.50;40.40;;;;;;5020714;28;19961;-68
2021/06/13 12:37:18;;;;;;;;;;;23.20;40.90;;;;;;5019896;28;20271;-68
2021/06/13 12:39:57;;;;;;;;;;;22.90;40.00;;;;;;5021298;28;20391;-71
2021/06/13 12:42:23;;;;;;;;;;;23.00;39.50;;;;;;5020401;28;20105;-69
2021/06/13 12:44:56;;;;;;;;;;;23.00;39.90;;;;;;5020143;28;19917;-70
2021/06/13 12:47:22;;;;;;;;;;;23.00;38.60;;;;;;5017660;28;20361;-70
2021/06/13 12:49:47;;;;;;;;;;;23.00;39.50;;;;;;5021240;28;19957;-71
2021/06/13 12:52:17;;;;;;;;;;;23.50;40.00;;;;;;5021169;28;20318;-68
2021/06/13 12:54:45;;;;;;;;;;;23.50;39.00;;;;;;5019328;28;20007;-69
2021/06/13 12:57:11;;;;;;;;;;;23.50;39.50;;;;;;5019900;28;20317;-70
2021/06/13 12:59:37;;;;;;;;;;;23.80;39.70;;;;;;5020290;28;19925;-69
2021/06/13 13:02:05;;;;;;;;;;;23.70;39.00;;;;;;5023405;28;20319;-70
2021/06/13 13:04:43;;;;;;;;;;;23.20;40.40;;;;;;5021404;28;19974;-69
2021/06/13 13:07:09;;;;;;;;;;;23.70;38.40;;;;;;5019544;28;20184;-70
2021/06/13 13:09:35;;;;;;;;;;;23.90;37.70;;;;;;5019744;28;19986;-68
2021/06/13 13:12:00;;;;;;;;;;;22.60;40.20;;;;;;5014774;28;19996;-68
2021/06/13 13:14:25;;;;;;;;;;;22.90;38.90;;;;;;5018165;28;19913;-72
2021/06/13 13:16:51;;;;;;;;;;;23.20;39.70;;;;;;5014327;28;19917;-71
2021/06/13 13:19:30;;;;;;;;;;;24.40;38.50;;;;;;5021017;28;20325;-69
2021/06/13 13:21:55;;;;;;;;;;;23.70;38.60;;;;;;5018643;28;19913;-70
2021/06/13 13:24:29;;;;;;;;;;;23.60;38.30;;;;;;5021259;28;19933;-72
2021/06/13 13:27:05;;;;;;;;;;;23.20;40.00;;;;;;5017918;28;20025;-72
2021/06/13 13:29:37;;;;;;;;;;;23.60;38.10;;;;;;5019260;28;20064;-70
2021/06/13 13:32:03;;;;;;;;;;;23.70;37.10;;;;;;5017220;28;20024;-69
2021/06/13 13:34:32;;;;;;;;;;;24.30;36.70;;;;;;5017384;28;19925;-69
2021/06/13 13:37:03;;;;;;;;;;;23.50;37.80;;;;;;5014688;28;19918;-70
2021/06/13 13:39:29;;;;;;;;;;;23.20;38.80;;;;;;5012916;28;20286;-72
2021/06/13 13:42:00;;;;;;;;;;;23.10;39.40;;;;;;5017844;28;19924;-71
2021/06/13 13:44:26;;;;;;;;;;;23.60;39.40;;;;;;5022870;28;19921;-71
2021/06/13 13:46:59;;;;;;;;;;;24.50;38.50;;;;;;5023434;28;20011;-68
2021/06/13 13:49:24;;;;;;;;;;;23.70;37.60;;;;;;5023911;28;19956;-68
2021/06/13 13:51:52;;;;;;;;;;;24.00;36.20;;;;;;5022920;28;19967;-69
2021/06/13 13:54:27;;;;;;;;;;;24.70;36.30;;;;;;5022326;28;20132;-68
2021/06/13 13:56:55;;;;;;;;;;;24.80;35.70;;;;;;5021227;28;19967;-68
2021/06/13 13:59:21;;;;;;;;;;;25.50;35.80;;;;;;5022550;28;20416;-68
2021/06/13 14:01:46;;;;;;;;;;;24.40;36.70;;;;;;5025184;28;20317;-70
2021/06/13 14:04:12;;;;;;;;;;;25.10;36.10;;;;;;5022025;28;19928;-71
2021/06/13 14:06:37;;;;;;;;;;;25.10;35.20;;;;;;5022209;28;19996;-69
2021/06/13 14:09:03;;;;;;;;;;;25.10;34.90;;;;;;5034167;28;19917;-71
2021/06/13 14:11:28;;;;;;;;;;;24.20;37.40;;;;;;5019119;28;20000;-70
2021/06/13 14:13:54;;;;;;;;;;;24.40;35.40;;;;;;5022411;28;21341;-68
2021/06/13 14:16:19;;;;;;;;;;;24.40;38.00;;;;;;5025286;28;19993;-69
2021/06/13 14:18:46;;;;;;;;;;;25.10;35.20;;;;;;5022260;28;20334;-70
2021/06/13 14:21:11;;;;;;;;;;;24.50;34.80;;;;;;5023724;28;20039;-70
2021/06/13 14:23:37;;;;;;;;;;;24.50;36.40;;;;;;5020664;28;20047;-70